Time;durP1;ratioP1;P1;durP2;ratioP2;P2;SDS_P1;SDS_P2;PMS_P1;PMS_P2;Temp;Humidity;BMP_temperature;BMP_pressure;BME280_temperature;BME280_humidity;BME280_pressure;Samples;Min_cycle;Max_cycle;Signal;HPM_P1;HPM_P2
2023/09/07 00:01:05;;;;;;;7.43;4.28;;;16.80;92.00;;;;;;5030305;28;20087;-73
2023/09/07 00:03:31;;;;;;;6.55;4.00;;;16.90;92.10;;;;;;5019471;28;20033;-73
2023/09/07 00:05:56;;;;;;;5.72;3.85;;;16.80;92.00;;;;;;5026677;28;20489;-73
2023/09/07 00:08:22;;;;;;;5.75;4.18;;;16.80;92.20;;;;;;5019269;28;20025;-73
2023/09/07 00:10:47;;;;;;;6.57;4.75;;;16.80;92.10;;;;;;5035006;28;20453;-74
2023/09/07 00:13:12;;;;;;;8.13;4.05;;;16.80;92.40;;;;;;5025919;28;20123;-73
2023/09/07 00:15:38;;;;;;;6.03;4.25;;;16.80;92.40;;;;;;5026105;28;20064;-73
2023/09/07 00:18:04;;;;;;;8.85;4.20;;;16.80;92.50;;;;;;5025898;28;20046;-77
2023/09/07 00:20:30;;;;;;;6.85;4.45;;;16.80;92.30;;;;;;5028717;28;20056;-74
2023/09/07 00:22:55;;;;;;;6.30;4.32;;;16.80;92.20;;;;;;5026088;28;20037;-73
2023/09/07 00:25:21;;;;;;;7.82;3.90;;;16.80;92.30;;;;;;5027513;28;20041;-74
2023/09/07 00:27:47;;;;;;;7.70;4.28;;;16.70;92.40;;;;;;5026115;28;20462;-73
2023/09/07 00:30:12;;;;;;;5.93;3.70;;;16.80;92.50;;;;;;5029467;28;20264;-74
2023/09/07 00:32:39;;;;;;;7.38;4.03;;;16.70;92.50;;;;;;5031607;28;20400;-75
2023/09/07 00:35:05;;;;;;;8.45;4.20;;;16.70;92.80;;;;;;5024991;28;20029;-75
2023/09/07 00:37:31;;;;;;;7.93;4.00;;;16.70;92.70;;;;;;5010714;28;20108;-73
2023/09/07 00:39:57;;;;;;;7.15;4.30;;;16.60;92.50;;;;;;5029444;28;20060;-74
2023/09/07 00:42:22;;;;;;;5.97;4.40;;;16.60;92.60;;;;;;5026578;28;20241;-74
2023/09/07 00:44:48;;;;;;;6.57;4.22;;;16.50;92.90;;;;;;5027408;28;20550;-74
2023/09/07 00:47:14;;;;;;;6.65;4.55;;;16.50;93.20;;;;;;5023168;28;20044;-73
2023/09/07 00:49:40;;;;;;;6.72;3.83;;;16.50;93.10;;;;;;5026127;28;20037;-75
2023/09/07 00:52:08;;;;;;;6.35;3.83;;;16.50;92.70;;;;;;5025370;28;20393;-73
2023/09/07 00:54:34;;;;;;;5.72;3.92;;;16.40;92.60;;;;;;5022899;28;20037;-74
2023/09/07 00:56:59;;;;;;;6.47;4.13;;;16.30;92.60;;;;;;5033395;28;20493;-73
2023/09/07 00:59:25;;;;;;;6.60;4.30;;;16.30;92.80;;;;;;5021019;28;20601;-74
2023/09/07 01:01:51;;;;;;;6.95;5.00;;;16.30;93.10;;;;;;5022428;28;20099;-74
2023/09/07 01:04:16;;;;;;;8.38;4.30;;;16.30;93.50;;;;;;5023112;28;20440;-73
2023/09/07 01:06:48;;;;;;;7.85;4.60;;;16.30;93.40;;;;;;5024043;28;20394;-74
2023/09/07 01:09:19;;;;;;;9.52;4.30;;;16.30;93.50;;;;;;5035401;28;20083;-74
2023/09/07 01:11:44;;;;;;;9.55;4.63;;;16.20;93.00;;;;;;5038287;28;20083;-74
2023/09/07 01:14:10;;;;;;;7.25;4.63;;;16.10;93.00;;;;;;5029393;28;20524;-74
2023/09/07 01:16:38;;;;;;;6.75;4.55;;;16.10;93.30;;;;;;5026174;28;20052;-74
2023/09/07 01:19:06;;;;;;;6.80;5.13;;;16.10;93.40;;;;;;5030996;28;20116;-73
2023/09/07 01:21:35;;;;;;;5.75;4.03;;;16.00;93.00;;;;;;5037784;28;20508;-73
2023/09/07 01:24:01;;;;;;;7.35;4.85;;;16.00;92.90;;;;;;5032129;28;20035;-73
2023/09/07 01:26:27;;;;;;;8.13;4.15;;;16.00;93.20;;;;;;5029797;28;20497;-74
2023/09/07 01:28:52;;;;;;;8.25;4.57;;;16.00;93.30;;;;;;5028574;28;20026;-73
2023/09/07 01:31:18;;;;;;;6.68;4.95;;;16.00;93.30;;;;;;5032818;28;20029;-77
2023/09/07 01:33:44;;;;;;;8.63;4.95;;;16.00;93.50;;;;;;5025841;28;20033;-73
2023/09/07 01:36:09;;;;;;;7.55;5.13;;;16.00;93.90;;;;;;5033181;28;20026;-73
2023/09/07 01:38:35;;;;;;;9.68;5.03;;;16.00;93.70;;;;;;5033337;28;20037;-74
2023/09/07 01:41:00;;;;;;;9.32;4.93;;;16.00;93.60;;;;;;5030452;28;20032;-73
2023/09/07 01:43:26;;;;;;;7.57;5.07;;;16.00;93.70;;;;;;5029205;28;20044;-73
2023/09/07 01:45:51;;;;;;;6.85;4.72;;;15.90;93.40;;;;;;5019789;28;20132;-73
2023/09/07 01:48:17;;;;;;;8.27;4.93;;;15.90;93.30;;;;;;5021099;28;20410;-73
2023/09/07 01:50:42;;;;;;;7.47;5.10;;;15.80;93.50;;;;;;5026168;28;20033;-73
2023/09/07 01:53:08;;;;;;;6.63;4.53;;;16.00;93.60;;;;;;5033261;28;20461;-73
2023/09/07 01:55:34;;;;;;;7.70;5.15;;;15.80;93.80;;;;;;5029864;28;20041;-73
2023/09/07 01:57:59;;;;;;;7.63;5.00;;;15.80;94.10;;;;;;5031289;28;20057;-73
2023/09/07 02:00:25;;;;;;;6.88;4.93;;;15.70;94.00;;;;;;5026597;28;20045;-75
2023/09/07 02:02:50;;;;;;;7.68;5.18;;;15.70;94.00;;;;;;5026615;28;20045;-74
2023/09/07 02:05:16;;;;;;;7.93;5.40;;;15.70;94.20;;;;;;5024695;28;20137;-74
2023/09/07 02:07:42;;;;;;;9.05;4.88;;;15.70;94.30;;;;;;5031444;28;20064;-73
2023/09/07 02:10:08;;;;;;;9.80;5.88;;;15.60;94.00;;;;;;5040218;28;20033;-73
2023/09/07 02:12:33;;;;;;;8.85;5.20;;;15.60;94.20;;;;;;5025855;28;20124;-74
2023/09/07 02:15:02;;;;;;;10.68;5.03;;;15.60;94.10;;;;;;5027667;28;20056;-73
2023/09/07 02:17:28;;;;;;;8.00;5.03;;;15.50;94.10;;;;;;5023331;28;20041;-74
2023/09/07 02:19:54;;;;;;;8.57;5.47;;;15.60;94.20;;;;;;5029328;28;20042;-73
2023/09/07 02:22:19;;;;;;;7.10;5.57;;;15.60;94.40;;;;;;5029228;28;20037;-73
2023/09/07 02:24:45;;;;;;;9.02;5.38;;;15.50;94.20;;;;;;5029606;28;20033;-74
2023/09/07 02:27:10;;;;;;;7.68;5.18;;;15.50;94.70;;;;;;5032511;28;20029;-74
2023/09/07 02:29:36;;;;;;;7.97;5.35;;;15.50;94.60;;;;;;5025430;28;20544;-73
2023/09/07 02:32:02;;;;;;;7.78;5.20;;;15.50;94.50;;;;;;5027471;28;20113;-73
2023/09/07 02:34:27;;;;;;;7.82;5.93;;;15.50;94.60;;;;;;5022738;28;20234;-73
2023/09/07 02:36:53;;;;;;;6.72;5.45;;;15.50;94.50;;;;;;5022176;28;20111;-73
2023/09/07 02:39:18;;;;;;;8.15;5.45;;;15.50;94.90;;;;;;5027458;28;20042;-73
2023/09/07 02:41:45;;;;;;;7.45;5.68;;;15.50;94.80;;;;;;5030064;28;20444;-73
2023/09/07 02:44:10;;;;;;;10.63;5.82;;;15.40;94.60;;;;;;5027705;28;20036;-74
2023/09/07 02:46:36;;;;;;;10.23;6.10;;;15.40;94.70;;;;;;5025872;28;20038;-73
2023/09/07 02:49:01;;;;;;;11.30;5.22;;;15.40;94.60;;;;;;5029899;28;20172;-77
2023/09/07 02:51:27;;;;;;;12.77;5.88;;;15.50;95.10;;;;;;5028782;28;20040;-73
2023/09/07 02:53:53;;;;;;;9.43;5.78;;;15.40;94.90;;;;;;5032439;28;20120;-74
2023/09/07 02:56:19;;;;;;;8.90;5.82;;;15.40;94.90;;;;;;5015284;28;20462;-78
2023/09/07 02:58:45;;;;;;;8.80;5.85;;;15.30;94.80;;;;;;5021515;28;20179;-73
2023/09/07 03:01:11;;;;;;;11.13;6.15;;;15.40;95.00;;;;;;5013232;28;20493;-74
2023/09/07 03:03:37;;;;;;;10.93;6.32;;;15.40;95.20;;;;;;5034077;28;20022;-74
2023/09/07 03:06:10;;;;;;;9.00;6.00;;;15.40;95.20;;;;;;5031167;28;20033;-73
2023/09/07 03:08:36;;;;;;;9.88;6.78;;;15.30;95.20;;;;;;5024536;28;20029;-74
2023/09/07 03:11:05;;;;;;;9.85;6.35;;;15.40;95.20;;;;;;5026973;28;20398;-73
2023/09/07 03:13:31;;;;;;;9.02;6.53;;;15.30;94.90;;;;;;5030783;28;20033;-73
2023/09/07 03:15:57;;;;;;;10.38;6.95;;;15.30;95.00;;;;;;5025937;28;20037;-75
2023/09/07 03:18:23;;;;;;;10.82;6.00;;;15.30;95.20;;;;;;5027204;28;20110;-75
2023/09/07 03:20:50;;;;;;;10.70;6.93;;;15.30;94.90;;;;;;5027345;28;20096;-73
2023/09/07 03:23:15;;;;;;;9.65;6.80;;;15.30;95.00;;;;;;5030218;28;20045;-73
2023/09/07 03:25:41;;;;;;;7.82;5.63;;;15.30;95.10;;;;;;5027470;28;20112;-73
2023/09/07 03:28:06;;;;;;;10.05;7.10;;;15.30;94.90;;;;;;5033910;28;20045;-73
2023/09/07 03:30:33;;;;;;;9.95;6.80;;;15.30;95.30;;;;;;5027031;28;20037;-74
2023/09/07 03:32:59;;;;;;;7.65;6.03;;;15.40;95.00;;;;;;5025223;28;20064;-73
2023/09/07 03:35:25;;;;;;;9.63;6.20;;;15.20;95.10;;;;;;5021136;28;20025;-74
2023/09/07 03:37:51;;;;;;;7.40;5.70;;;15.20;95.10;;;;;;5026670;28;20449;-73
2023/09/07 03:40:16;;;;;;;10.52;6.60;;;15.20;95.20;;;;;;5014776;28;20079;-74
2023/09/07 03:42:43;;;;;;;8.77;6.43;;;15.10;95.20;;;;;;5028418;28;20044;-73
2023/09/07 03:45:09;;;;;;;8.73;6.57;;;15.10;95.30;;;;;;5020120;28;20025;-73
2023/09/07 03:47:34;;;;;;;12.95;6.85;;;15.10;95.10;;;;;;5019295;28;20040;-73
2023/09/07 03:50:00;;;;;;;10.80;6.70;;;15.00;95.20;;;;;;5029563;28;20367;-73
2023/09/07 03:52:27;;;;;;;13.13;6.65;;;15.10;95.40;;;;;;5028096;28;20029;-73
2023/09/07 03:54:56;;;;;;;10.63;6.90;;;15.10;95.50;;;;;;5028807;28;20075;-74
2023/09/07 03:57:21;;;;;;;8.25;6.88;;;15.10;95.80;;;;;;5030863;28;20025;-73
2023/09/07 03:59:48;;;;;;;19.55;7.50;;;15.20;95.80;;;;;;5025667;28;20084;-73
2023/09/07 04:02:14;;;;;;;13.88;7.88;;;15.20;95.70;;;;;;5023423;28;20142;-75
2023/09/07 04:04:40;;;;;;;23.17;8.50;;;15.20;95.40;;;;;;5008634;28;20061;-73
2023/09/07 04:07:06;;;;;;;18.73;7.97;;;15.10;95.30;;;;;;5024307;28;20037;-73
2023/09/07 04:09:31;;;;;;;12.20;7.07;;;15.20;95.30;;;;;;5024932;28;20533;-73
2023/09/07 04:11:57;;;;;;;11.50;7.38;;;15.10;95.10;;;;;;5026541;28;20038;-73
2023/09/07 04:14:22;;;;;;;14.05;7.60;;;15.10;95.10;;;;;;5024132;28;20041;-76
2023/09/07 04:16:48;;;;;;;11.77;7.28;;;15.10;95.00;;;;;;5023456;28;20382;-73
2023/09/07 04:19:14;;;;;;;9.18;6.97;;;15.10;95.20;;;;;;5027596;28;20026;-74
2023/09/07 04:21:39;;;;;;;8.63;6.93;;;15.00;95.20;;;;;;5009088;28;20037;-73
2023/09/07 04:24:05;;;;;;;8.35;6.50;;;15.10;95.30;;;;;;5028120;28;20044;-73
2023/09/07 04:26:30;;;;;;;9.70;7.50;;;15.00;95.40;;;;;;5024068;28;20045;-73
2023/09/07 04:28:56;;;;;;;10.93;7.50;;;15.10;95.30;;;;;;5010193;28;20039;-69
2023/09/07 04:31:24;;;;;;;10.18;7.82;;;15.20;95.30;;;;;;5024409;28;20091;-71
2023/09/07 04:33:49;;;;;;;9.23;6.80;;;15.10;95.00;;;;;;5024012;28;20489;-70
2023/09/07 04:36:15;;;;;;;10.18;7.00;;;15.20;95.20;;;;;;5026983;28;20100;-69
2023/09/07 04:38:41;;;;;;;9.85;6.88;;;15.20;95.10;;;;;;5024111;28;20033;-69
2023/09/07 04:41:11;;;;;;;10.07;7.00;;;15.20;94.90;;;;;;5020812;28;20026;-71
2023/09/07 04:43:40;;;;;;;12.40;7.43;;;15.10;95.00;;;;;;5022711;28;20049;-70
2023/09/07 04:46:06;;;;;;;10.40;7.32;;;15.10;94.80;;;;;;5021478;28;20025;-70
2023/09/07 04:48:32;;;;;;;8.10;6.35;;;15.10;95.00;;;;;;5020679;28;20608;-71
2023/09/07 04:50:59;;;;;;;10.18;6.85;;;15.10;95.10;;;;;;5020255;28;20034;-70
2023/09/07 04:53:24;;;;;;;9.23;6.50;;;15.10;95.20;;;;;;5020061;28;20055;-70
2023/09/07 04:55:50;;;;;;;8.82;6.75;;;15.10;95.30;;;;;;5018408;28;20022;-71
2023/09/07 04:58:15;;;;;;;11.40;7.22;;;15.10;95.20;;;;;;5021884;28;20025;-71
2023/09/07 05:00:41;;;;;;;8.93;6.68;;;15.10;95.10;;;;;;5024762;28;20030;-72
2023/09/07 05:03:06;;;;;;;10.07;6.55;;;15.00;94.80;;;;;;5007255;28;20120;-72
2023/09/07 05:05:32;;;;;;;9.13;6.72;;;15.00;94.90;;;;;;5027434;28;20083;-70
2023/09/07 05:07:57;;;;;;;10.20;7.10;;;15.00;94.90;;;;;;5012495;28;20576;-70
2023/09/07 05:10:22;;;;;;;11.02;7.32;;;15.00;94.90;;;;;;5021368;28;20025;-71
2023/09/07 05:12:48;;;;;;;9.00;6.68;;;15.00;95.20;;;;;;5024866;28;20124;-70
2023/09/07 05:15:13;;;;;;;8.38;6.45;;;15.10;95.30;;;;;;5018031;28;20051;-69
2023/09/07 05:17:39;;;;;;;13.10;7.72;;;15.20;95.30;;;;;;5033449;28;20060;-69
2023/09/07 05:20:05;;;;;;;9.57;7.28;;;15.10;95.00;;;;;;5027253;28;20030;-69
2023/09/07 05:22:34;;;;;;;11.80;7.55;;;15.20;95.10;;;;;;5030545;28;20033;-69
2023/09/07 05:24:59;;;;;;;9.98;7.47;;;15.30;95.10;;;;;;5025825;28;20482;-69
2023/09/07 05:27:25;;;;;;;9.82;7.40;;;15.30;95.00;;;;;;5030287;28;20043;-73
2023/09/07 05:29:50;;;;;;;9.52;7.47;;;15.40;94.90;;;;;;5029880;28;20112;-70
2023/09/07 05:32:16;;;;;;;10.13;7.75;;;15.40;94.90;;;;;;5021766;28;20124;-70
2023/09/07 05:34:41;;;;;;;9.18;7.20;;;15.50;94.80;;;;;;5028278;28;20029;-71
2023/09/07 05:37:07;;;;;;;11.70;8.20;;;15.50;94.70;;;;;;5023006;28;20425;-72
2023/09/07 05:39:33;;;;;;;11.93;7.38;;;15.60;94.60;;;;;;5029777;28;20113;-70
2023/09/07 05:41:58;;;;;;;11.20;7.20;;;15.70;94.40;;;;;;5026147;28;20033;-70
2023/09/07 05:44:24;;;;;;;12.18;7.57;;;15.80;94.40;;;;;;5007830;28;20033;-70
2023/09/07 05:46:49;;;;;;;10.55;7.45;;;15.80;94.10;;;;;;5018425;28;20034;-70
2023/09/07 05:49:14;;;;;;;8.43;6.70;;;15.80;94.00;;;;;;5023731;28;20040;-71
2023/09/07 05:51:40;;;;;;;9.63;6.80;;;15.80;94.10;;;;;;5031164;28;20433;-77
2023/09/07 05:54:05;;;;;;;9.77;6.45;;;15.90;94.30;;;;;;5013784;28;20033;-69
2023/09/07 05:56:33;;;;;;;8.07;6.15;;;16.00;94.20;;;;;;5034142;28;20037;-70
2023/09/07 05:58:58;;;;;;;9.80;7.10;;;16.00;94.00;;;;;;5028132;28;20617;-70
2023/09/07 06:01:24;;;;;;;8.27;6.78;;;16.00;93.90;;;;;;5028304;28;20036;-70
2023/09/07 06:03:50;;;;;;;10.55;6.80;;;16.10;93.60;;;;;;5017860;28;20040;-71
2023/09/07 06:06:15;;;;;;;9.13;6.68;;;16.10;93.70;;;;;;5028928;28;20120;-70
2023/09/07 06:08:40;;;;;;;9.25;6.68;;;16.30;93.60;;;;;;5031483;28;20028;-70
2023/09/07 06:11:06;;;;;;;9.57;7.25;;;16.40;93.40;;;;;;5030579;28;20640;-70
2023/09/07 06:13:31;;;;;;;7.57;6.53;;;16.50;93.20;;;;;;5029463;28;20094;-69
2023/09/07 06:15:57;;;;;;;10.35;6.93;;;16.60;92.90;;;;;;5030672;28;20045;-71
2023/09/07 06:18:22;;;;;;;10.52;6.95;;;16.70;93.00;;;;;;5008876;28;20481;-71
2023/09/07 06:20:48;;;;;;;7.40;6.30;;;16.90;92.20;;;;;;5029024;28;20159;-73
2023/09/07 06:23:13;;;;;;;6.82;5.80;;;17.00;92.20;;;;;;5032497;28;20076;-70
2023/09/07 06:25:39;;;;;;;7.28;5.70;;;17.10;92.10;;;;;;5015669;28;20108;-71
2023/09/07 06:28:05;;;;;;;10.50;6.05;;;17.20;91.60;;;;;;5033878;28;20040;-70
2023/09/07 06:30:30;;;;;;;11.23;6.10;;;17.40;91.10;;;;;;5028464;28;20136;-71
2023/09/07 06:32:57;;;;;;;7.82;5.70;;;17.40;91.40;;;;;;5027964;28;20042;-71
2023/09/07 06:35:22;;;;;;;7.97;5.75;;;17.50;91.30;;;;;;5031848;28;20025;-70
2023/09/07 06:37:48;;;;;;;8.43;5.57;;;17.60;90.80;;;;;;5034777;28;20076;-71
2023/09/07 06:40:15;;;;;;;9.18;5.05;;;17.70;90.50;;;;;;5035501;28;20405;-70
2023/09/07 06:42:40;;;;;;;8.00;5.47;;;17.70;90.60;;;;;;5032933;28;20033;-71
2023/09/07 06:45:07;;;;;;;8.18;5.30;;;17.90;90.00;;;;;;5035580;28;20397;-70
2023/09/07 06:47:32;;;;;;;7.85;5.25;;;18.00;89.20;;;;;;5029269;28;20069;-70
2023/09/07 06:49:58;;;;;;;7.35;4.93;;;18.10;89.60;;;;;;5029764;28;20111;-70
2023/09/07 06:52:23;;;;;;;9.13;5.47;;;18.20;89.20;;;;;;5032428;28;20044;-70
2023/09/07 06:54:53;;;;;;;6.93;5.13;;;18.30;89.10;;;;;;5032360;28;20530;-70
2023/09/07 06:57:19;;;;;;;7.53;5.47;;;18.30;89.50;;;;;;5032462;28;20113;-70
2023/09/07 06:59:44;;;;;;;10.15;5.80;;;18.30;89.20;;;;;;5032268;28;20104;-70
2023/09/07 07:02:10;;;;;;;9.18;5.05;;;18.40;88.60;;;;;;5029934;28;20033;-70
2023/09/07 07:04:35;;;;;;;7.72;4.82;;;18.60;87.70;;;;;;5030958;28;20083;-70
2023/09/07 07:07:03;;;;;;;10.25;5.18;;;18.70;87.60;;;;;;5042301;28;20482;-70
2023/09/07 07:09:30;;;;;;;8.85;5.20;;;18.90;87.00;;;;;;5030333;28;20087;-70
2023/09/07 07:11:55;;;;;;;9.30;5.10;;;18.80;87.60;;;;;;5035230;28;20033;-72
2023/09/07 07:14:21;;;;;;;12.32;5.20;;;19.00;86.90;;;;;;5022239;28;20033;-70
2023/09/07 07:16:46;;;;;;;6.65;4.93;;;19.10;87.00;;;;;;5029961;28;20391;-73
2023/09/07 07:19:12;;;;;;;9.50;5.18;;;19.10;86.80;;;;;;5009976;28;20045;-72
2023/09/07 07:21:38;;;;;;;9.55;5.22;;;19.20;86.30;;;;;;5038107;28;20038;-70
2023/09/07 07:24:06;;;;;;;8.75;4.93;;;19.20;87.00;;;;;;5035421;28;20435;-70
2023/09/07 07:26:32;;;;;;;9.45;5.28;;;19.10;87.40;;;;;;5030358;28;20112;-70
2023/09/07 07:28:57;;;;;;;8.52;4.85;;;19.20;87.00;;;;;;5026773;28;20644;-70
2023/09/07 07:31:23;;;;;;;7.75;4.82;;;19.40;86.00;;;;;;5019394;28;20098;-71
2023/09/07 07:33:48;;;;;;;6.20;4.47;;;19.30;86.70;;;;;;5029455;28;20056;-71
2023/09/07 07:36:14;;;;;;;9.52;4.82;;;19.50;85.80;;;;;;5030236;28;20477;-70
2023/09/07 07:38:39;;;;;;;8.07;4.63;;;19.60;85.20;;;;;;5045197;28;20385;-71
2023/09/07 07:41:05;;;;;;;8.05;4.97;;;19.70;84.70;;;;;;5027185;28;20505;-70
2023/09/07 07:43:32;;;;;;;11.32;4.85;;;19.70;85.30;;;;;;5031759;28;20029;-70
2023/09/07 07:45:57;;;;;;;6.97;4.72;;;19.80;86.30;;;;;;5028855;28;20057;-72
2023/09/07 07:48:23;;;;;;;9.43;4.68;;;20.20;82.10;;;;;;5027702;28;20053;-70
2023/09/07 07:50:48;;;;;;;8.68;4.63;;;20.40;82.30;;;;;;5030768;28;20108;-70
2023/09/07 07:53:14;;;;;;;8.60;4.80;;;20.60;81.40;;;;;;5037581;28;20430;-70
2023/09/07 07:55:40;;;;;;;8.63;4.63;;;20.70;81.90;;;;;;5030117;28;20025;-71
2023/09/07 07:58:09;;;;;;;12.05;4.85;;;20.80;82.10;;;;;;5031972;28;20048;-70
2023/09/07 08:00:36;;;;;;;7.65;4.85;;;21.00;80.60;;;;;;5026785;28;20454;-71
2023/09/07 08:03:08;;;;;;;7.95;4.35;;;21.20;79.40;;;;;;5032926;28;20033;-70
2023/09/07 08:05:34;;;;;;;8.63;4.40;;;21.50;77.90;;;;;;5024092;28;20033;-70
2023/09/07 08:08:01;;;;;;;6.93;4.22;;;21.70;80.30;;;;;;5033040;28;20025;-70
2023/09/07 08:10:26;;;;;;;10.75;4.28;;;21.80;78.60;;;;;;5027777;28;20037;-72
2023/09/07 08:12:56;;;;;;;7.05;4.45;;;22.00;78.50;;;;;;5032826;28;20448;-70
2023/09/07 08:15:22;;;;;;;6.28;3.70;;;22.20;78.50;;;;;;5026180;28;20465;-72
2023/09/07 08:17:48;;;;;;;6.88;4.15;;;22.40;76.90;;;;;;5029619;28;20406;-73
2023/09/07 08:20:15;;;;;;;6.35;3.97;;;22.50;74.90;;;;;;5023965;28;20033;-70
2023/09/07 08:22:42;;;;;;;5.20;3.63;;;22.70;76.90;;;;;;5031816;28;20025;-71
2023/09/07 08:25:08;;;;;;;12.90;4.45;;;22.90;75.90;;;;;;5031462;28;20484;-71
2023/09/07 08:27:34;;;;;;;8.63;4.50;;;23.10;75.50;;;;;;5027444;28;20030;-70
2023/09/07 08:29:59;;;;;;;6.05;3.88;;;23.20;73.00;;;;;;5025369;28;20038;-72
2023/09/07 08:32:25;;;;;;;6.07;4.05;;;23.30;71.30;;;;;;5027107;28;20064;-72
2023/09/07 08:34:52;;;;;;;7.50;4.13;;;23.40;71.80;;;;;;5030266;28;20498;-71
2023/09/07 08:37:20;;;;;;;5.72;3.97;;;23.60;72.80;;;;;;5028959;28;20472;-71
2023/09/07 08:39:46;;;;;;;5.72;3.78;;;23.50;71.30;;;;;;5026126;28;20404;-71
2023/09/07 08:42:12;;;;;;;6.45;3.92;;;23.80;72.70;;;;;;5004587;28;20044;-71
2023/09/07 08:44:39;;;;;;;8.52;4.00;;;24.00;74.40;;;;;;5028004;28;20048;-71
2023/09/07 08:47:05;;;;;;;9.38;3.72;;;24.10;71.20;;;;;;5034528;28;20036;-71
2023/09/07 08:49:32;;;;;;;10.40;4.07;;;24.20;69.00;;;;;;5012665;28;20402;-71
2023/09/07 08:52:00;;;;;;;7.03;4.07;;;24.40;70.10;;;;;;5017756;28;20049;-71
2023/09/07 08:54:26;;;;;;;7.70;3.92;;;24.60;70.00;;;;;;5030121;28;20124;-70
2023/09/07 08:56:53;;;;;;;7.30;3.80;;;24.60;69.80;;;;;;5016038;28;20030;-71
2023/09/07 08:59:18;;;;;;;6.32;4.07;;;24.60;68.10;;;;;;5033926;28;20029;-71
2023/09/07 09:01:44;;;;;;;5.63;3.90;;;24.80;69.50;;;;;;5029260;28;20056;-71
2023/09/07 09:04:10;;;;;;;7.57;3.92;;;25.00;68.90;;;;;;5039415;28;20033;-72
2023/09/07 09:06:35;;;;;;;11.02;4.07;;;25.10;68.40;;;;;;5031222;28;20037;-71
2023/09/07 09:09:00;;;;;;;5.78;3.63;;;25.20;66.50;;;;;;5027722;28;20033;-71
2023/09/07 09:11:27;;;;;;;5.93;4.00;;;25.30;65.40;;;;;;5027747;28;20457;-71
2023/09/07 09:13:53;;;;;;;5.03;3.35;;;25.50;67.00;;;;;;5023013;28;20514;-72
2023/09/07 09:16:20;;;;;;;7.05;4.25;;;25.70;68.80;;;;;;5019478;28;20489;-73
2023/09/07 09:18:56;;;;;;;5.82;3.85;;;25.80;67.40;;;;;;5024354;28;20033;-70
2023/09/07 09:21:23;;;;;;;5.57;3.65;;;25.90;64.90;;;;;;5028033;28;20033;-71
2023/09/07 09:23:50;;;;;;;5.43;3.70;;;26.10;65.70;;;;;;5030973;28;20473;-71
2023/09/07 09:26:16;;;;;;;5.20;3.28;;;26.10;65.20;;;;;;5012952;28;20386;-71
2023/09/07 09:28:44;;;;;;;7.90;3.75;;;26.20;66.20;;;;;;5030105;28;20026;-71
2023/09/07 09:31:12;;;;;;;6.90;3.90;;;26.30;64.10;;;;;;5029759;28;20025;-71
2023/09/07 09:33:41;;;;;;;5.63;3.58;;;26.40;62.20;;;;;;5028690;28;20496;-71
2023/09/07 09:36:07;;;;;;;6.30;3.80;;;26.40;62.60;;;;;;5036371;28;20037;-71
2023/09/07 09:38:34;;;;;;;4.82;3.45;;;26.40;61.40;;;;;;5025157;28;20466;-71
2023/09/07 09:40:59;;;;;;;7.97;3.75;;;26.50;59.40;;;;;;5019230;28;20117;-71
2023/09/07 09:43:26;;;;;;;9.95;3.85;;;26.70;61.30;;;;;;5015471;28;20445;-71
2023/09/07 09:45:53;;;;;;;5.50;3.35;;;26.90;60.60;;;;;;5031043;28;20063;-71
2023/09/07 09:48:22;;;;;;;5.78;3.70;;;26.70;59.90;;;;;;5010882;28;20036;-71
2023/09/07 09:50:48;;;;;;;7.90;3.78;;;26.80;57.40;;;;;;5029286;28;20037;-72
2023/09/07 09:53:20;;;;;;;5.68;3.60;;;26.90;58.10;;;;;;5034263;28;20088;-71
2023/09/07 09:55:50;;;;;;;5.55;3.63;;;26.80;56.40;;;;;;5018773;28;20030;-71
2023/09/07 09:58:16;;;;;;;6.40;3.45;;;27.00;57.20;;;;;;5023460;28;20045;-71
2023/09/07 10:00:48;;;;;;;5.35;3.53;;;27.20;57.10;;;;;;5026303;28;20075;-70
2023/09/07 10:03:23;;;;;;;4.95;3.30;;;27.00;55.80;;;;;;5025737;28;20045;-71
2023/09/07 10:05:49;;;;;;;7.32;3.45;;;27.20;58.30;;;;;;5033996;28;20021;-71
2023/09/07 10:08:18;;;;;;;7.55;3.33;;;26.90;56.00;;;;;;5031991;28;20026;-71
2023/09/07 10:10:46;;;;;;;6.60;3.40;;;27.40;59.10;;;;;;5031196;28;20037;-71
2023/09/07 10:13:16;;;;;;;5.90;3.47;;;27.10;57.90;;;;;;5029337;28;20044;-71
2023/09/07 10:15:42;;;;;;;4.50;3.20;;;27.50;57.00;;;;;;5022710;28;20355;-71
2023/09/07 10:18:12;;;;;;;6.82;3.65;;;27.30;57.30;;;;;;5023724;28;20473;-73
2023/09/07 10:20:55;;;;;;;5.25;3.00;;;27.70;57.10;;;;;;5015140;28;20025;-72
2023/09/07 10:23:22;;;;;;;9.27;3.53;;;28.00;57.50;;;;;;5030877;28;20535;-71
2023/09/07 10:25:52;;;;;;;6.18;3.22;;;28.30;57.20;;;;;;5032213;28;20036;-72
2023/09/07 10:28:22;;;;;;;5.90;3.20;;;28.10;55.70;;;;;;5030526;28;20032;-71
2023/09/07 10:31:12;;;;;;;4.68;3.38;;;28.10;56.40;;;;;;5031543;28;20029;-71
2023/09/07 10:33:38;;;;;;;4.45;3.20;;;28.00;56.00;;;;;;5009056;28;20048;-72
2023/09/07 10:36:05;;;;;;;3.88;2.72;;;27.70;56.70;;;;;;5034415;28;20029;-71
2023/09/07 10:38:32;;;;;;;4.40;3.15;;;28.00;57.10;;;;;;5033980;28;20025;-71
2023/09/07 10:40:59;;;;;;;9.98;2.90;;;28.50;57.10;;;;;;5026425;28;20056;-71
2023/09/07 10:43:30;;;;;;;4.32;3.00;;;28.50;55.10;;;;;;5032949;28;20028;-71
2023/09/07 10:45:57;;;;;;;6.13;3.10;;;28.70;55.50;;;;;;5029748;28;20037;-72
2023/09/07 10:48:25;;;;;;;5.03;2.85;;;28.70;53.60;;;;;;5030034;28;20366;-71
2023/09/07 10:50:51;;;;;;;5.32;2.60;;;28.60;52.00;;;;;;5027418;28;20076;-73
2023/09/07 10:53:26;;;;;;;6.18;2.63;;;29.10;53.60;;;;;;5032231;28;20060;-73
2023/09/07 10:55:52;;;;;;;5.22;2.90;;;29.20;53.20;;;;;;5027187;28;20032;-72
2023/09/07 10:58:30;;;;;;;4.90;2.53;;;29.30;52.20;;;;;;5032138;28;20397;-72
2023/09/07 11:00:56;;;;;;;4.40;3.00;;;29.00;50.70;;;;;;5026601;28;20025;-73
2023/09/07 11:03:24;;;;;;;4.75;2.83;;;29.20;52.60;;;;;;5023263;28;20096;-72
2023/09/07 11:05:51;;;;;;;4.68;2.70;;;29.20;51.70;;;;;;5030370;28;20033;-71
2023/09/07 11:08:16;;;;;;;4.55;2.50;;;29.50;51.70;;;;;;5027751;28;20045;-73
2023/09/07 11:10:42;;;;;;;4.78;2.67;;;29.70;51.70;;;;;;5032102;28;20038;-72
2023/09/07 11:13:09;;;;;;;6.38;2.50;;;29.20;49.50;;;;;;5023268;28;20367;-71
2023/09/07 11:15:35;;;;;;;3.95;2.35;;;29.50;48.20;;;;;;5020560;28;20033;-72
2023/09/07 11:18:07;;;;;;;4.45;2.65;;;29.40;47.30;;;;;;5025804;28;20467;-72
2023/09/07 11:20:34;;;;;;;5.97;2.63;;;29.60;49.80;;;;;;5029446;28;21547;-72
2023/09/07 11:23:00;;;;;;;6.32;2.22;;;29.90;49.20;;;;;;5028398;28;20083;-72
2023/09/07 11:25:26;;;;;;;3.70;2.05;;;29.60;46.90;;;;;;5030228;28;20026;-72
2023/09/07 11:27:57;;;;;;;3.88;2.22;;;29.60;47.50;;;;;;5028234;28;20029;-71
2023/09/07 11:30:24;;;;;;;4.68;2.40;;;29.60;46.00;;;;;;5030596;28;20485;-71
2023/09/07 11:32:49;;;;;;;3.97;2.33;;;29.70;46.70;;;;;;5018045;28;20045;-72
2023/09/07 11:35:15;;;;;;;6.38;2.22;;;30.00;47.10;;;;;;5026764;28;20029;-71
2023/09/07 11:37:40;;;;;;;4.18;2.40;;;29.90;47.20;;;;;;5035826;28;20039;-72
2023/09/07 11:40:11;;;;;;;5.20;2.10;;;30.40;48.20;;;;;;5030516;28;20030;-73
2023/09/07 11:42:38;;;;;;;5.50;2.22;;;29.50;45.40;;;;;;5020568;28;20033;-73
2023/09/07 11:45:06;;;;;;;4.90;2.35;;;30.00;46.80;;;;;;5026693;28;20534;-71
2023/09/07 11:47:31;;;;;;;6.15;2.50;;;30.40;44.50;;;;;;5033263;28;20036;-72
2023/09/07 11:49:57;;;;;;;4.32;2.45;;;30.20;45.20;;;;;;5032269;28;20552;-72
2023/09/07 11:52:22;;;;;;;3.72;2.22;;;30.00;45.50;;;;;;5010462;28;20500;-73
2023/09/07 11:54:48;;;;;;;4.72;2.17;;;30.60;45.60;;;;;;5035717;28;20084;-72
2023/09/07 11:57:15;;;;;;;5.03;2.20;;;31.10;42.90;;;;;;5030087;28;20061;-72
2023/09/07 11:59:41;;;;;;;4.93;2.25;;;31.40;45.10;;;;;;5022620;28;20036;-72
2023/09/07 12:02:06;;;;;;;3.55;2.35;;;31.50;42.20;;;;;;5010768;28;20030;-74
2023/09/07 12:04:33;;;;;;;4.65;2.22;;;31.20;43.90;;;;;;5029715;28;20064;-74
2023/09/07 12:06:58;;;;;;;4.75;2.38;;;31.40;43.30;;;;;;5032405;28;20064;-73
2023/09/07 12:09:24;;;;;;;2.60;2.03;;;31.00;42.30;;;;;;5032374;28;20069;-72
2023/09/07 12:11:49;;;;;;;4.63;2.28;;;31.20;40.70;;;;;;5021504;28;20381;-73
2023/09/07 12:14:15;;;;;;;3.90;2.33;;;31.40;42.20;;;;;;5020048;28;20079;-72
2023/09/07 12:16:41;;;;;;;4.35;2.17;;;31.80;41.10;;;;;;5022618;28;20072;-75
2023/09/07 12:19:06;;;;;;;4.93;2.63;;;32.70;41.50;;;;;;5009631;28;20037;-74
2023/09/07 12:21:31;;;;;;;3.97;2.08;;;32.40;39.70;;;;;;5027010;28;20025;-72
2023/09/07 12:23:57;;;;;;;2.92;1.88;;;32.80;40.20;;;;;;5028512;28;20088;-73
2023/09/07 12:26:22;;;;;;;3.65;2.17;;;33.00;41.40;;;;;;5029939;28;20041;-73
2023/09/07 12:28:48;;;;;;;3.72;2.10;;;31.50;39.20;;;;;;5026625;28;20025;-74
2023/09/07 12:31:14;;;;;;;4.22;2.40;;;31.70;38.80;;;;;;5027942;28;20037;-75
2023/09/07 12:33:40;;;;;;;3.25;2.20;;;32.00;39.60;;;;;;5027029;28;20466;-73
2023/09/07 12:36:09;;;;;;;7.43;2.28;;;32.10;40.20;;;;;;5018962;28;20040;-73
2023/09/07 12:38:34;;;;;;;3.75;2.20;;;32.80;39.60;;;;;;5027093;28;20037;-74
2023/09/07 12:41:00;;;;;;;2.90;1.95;;;33.00;39.90;;;;;;5028140;28;20041;-73